Time;durP1;ratioP1;P1;durP2;ratioP2;P2;SDS_P1;SDS_P2;PMS_P1;PMS_P2;Temp;Humidity;BMP_temperature;BMP_pressure;BME280_temperature;BME280_humidity;BME280_pressure;Samples;Min_cycle;Max_cycle;Signal;HPM_P1;HPM_P2
2021/09/29 00:01:21;;;;;;;9.65;5.57;;;35.20;20.70;;;;;;5090038;28;20079;-61
2021/09/29 00:03:47;;;;;;;15.00;6.35;;;34.90;21.10;;;;;;5090172;28;20472;-63
2021/09/29 00:06:14;;;;;;;17.98;6.15;;;34.90;21.30;;;;;;5090369;28;20097;-61
2021/09/29 00:08:40;;;;;;;13.52;5.70;;;34.90;21.00;;;;;;5091120;28;20490;-62
2021/09/29 00:11:07;;;;;;;13.90;6.97;;;34.80;21.20;;;;;;5089670;28;20076;-62
2021/09/29 00:13:34;;;;;;;14.45;4.82;;;34.80;21.30;;;;;;5090828;28;20524;-63
2021/09/29 00:16:00;;;;;;;11.52;4.97;;;34.80;20.00;;;;;;5089852;28;20071;-64
2021/09/29 00:18:27;;;;;;;15.65;5.90;;;34.70;21.50;;;;;;5089213;28;20532;-63
2021/09/29 00:20:53;;;;;;;14.00;5.70;;;34.60;21.10;;;;;;5089910;28;20210;-64
2021/09/29 00:23:19;;;;;;;11.52;5.82;;;34.50;21.50;;;;;;5093336;28;20080;-63
2021/09/29 00:25:46;;;;;;;13.50;5.45;;;34.40;21.80;;;;;;5092900;28;20067;-63
2021/09/29 00:28:12;;;;;;;15.82;5.60;;;34.40;21.90;;;;;;5091284;28;20515;-63
2021/09/29 00:33:25;;;;;;;10.15;5.10;;;34.20;21.60;;;;;;5061155;28;20615;-61
2021/09/29 00:35:51;;;;;;;14.15;4.80;;;34.10;22.00;;;;;;5092518;28;20079;-62
2021/09/29 00:38:18;;;;;;;22.88;5.40;;;34.00;22.10;;;;;;5089045;28;20076;-63
2021/09/29 00:40:44;;;;;;;16.83;5.22;;;33.90;22.50;;;;;;5090675;28;20031;-63
2021/09/29 00:43:11;;;;;;;9.07;4.97;;;33.70;22.50;;;;;;5089333;28;21062;-62
2021/09/29 00:45:37;;;;;;;13.98;5.38;;;33.70;23.00;;;;;;5072936;28;20079;-64
2021/09/29 00:48:04;;;;;;;15.73;4.75;;;33.70;22.90;;;;;;5074251;28;20154;-61
2021/09/29 00:50:30;;;;;;;7.95;5.57;;;33.60;25.00;;;;;;5091342;28;20074;-63
2021/09/29 00:52:58;;;;;;;12.68;5.65;;;33.50;23.10;;;;;;5095643;28;20084;-62
2021/09/29 00:55:25;;;;;;;10.25;5.40;;;33.40;22.90;;;;;;5091993;28;20071;-63
2021/09/29 00:57:51;;;;;;;13.00;4.82;;;33.30;23.30;;;;;;5073929;28;20118;-63
2021/09/29 01:00:18;;;;;;;14.45;4.40;;;33.20;23.30;;;;;;5090786;28;20068;-63
2021/09/29 01:02:44;;;;;;;9.15;5.07;;;33.10;23.50;;;;;;5090465;28;20076;-63
2021/09/29 01:05:11;;;;;;;9.10;4.43;;;33.00;23.70;;;;;;5074080;28;20174;-63
2021/09/29 01:08:00;;;;;;;25.85;4.85;;;32.90;24.00;;;;;;5056171;28;20494;-63
2021/09/29 01:10:31;;;;;;;10.95;4.80;;;32.90;23.90;;;;;;5090699;28;20419;-63
2021/09/29 01:13:19;;;;;;;9.95;4.53;;;32.80;24.20;;;;;;5094285;28;20087;-62
2021/09/29 01:15:54;;;;;;;10.38;4.03;;;32.70;24.40;;;;;;5060722;28;20194;-62
2021/09/29 01:18:24;;;;;;;10.48;4.20;;;32.60;24.70;;;;;;5072227;28;20068;-63
2021/09/29 01:20:52;;;;;;;15.77;4.32;;;32.40;24.60;;;;;;5072921;28;20446;-63
2021/09/29 01:23:31;;;;;;;8.70;4.18;;;32.40;24.90;;;;;;5091139;28;20069;-64
2021/09/29 01:25:57;;;;;;;9.07;3.83;;;32.30;24.90;;;;;;5091849;28;20173;-65
2021/09/29 01:28:44;;;;;;;7.57;3.45;;;32.30;25.00;;;;;;5090920;28;20584;-63
2021/09/29 01:31:11;;;;;;;10.40;3.67;;;32.10;25.10;;;;;;5091105;28;20208;-63
2021/09/29 01:33:38;;;;;;;9.30;3.45;;;32.00;25.60;;;;;;5091214;28;20522;-62
2021/09/29 01:36:06;;;;;;;11.07;3.40;;;32.00;25.50;;;;;;5056934;28;20065;-63
2021/09/29 01:38:34;;;;;;;11.95;3.22;;;31.90;25.90;;;;;;5090023;28;20064;-62
2021/09/29 01:41:01;;;;;;;10.77;3.10;;;31.70;26.30;;;;;;5089175;28;20080;-63
2021/09/29 01:43:30;;;;;;;6.07;3.05;;;31.70;25.70;;;;;;5090569;28;20073;-62
2021/09/29 01:45:56;;;;;;;12.48;3.28;;;31.60;25.70;;;;;;5089308;28;20085;-63
2021/09/29 01:48:25;;;;;;;6.85;3.35;;;31.50;26.60;;;;;;5089759;28;20542;-62
2021/09/29 01:51:00;;;;;;;8.77;3.65;;;31.40;26.50;;;;;;5086975;28;20463;-64
2021/09/29 01:53:35;;;;;;;9.95;3.35;;;31.30;25.80;;;;;;5090548;28;20091;-63
2021/09/29 01:56:01;;;;;;;12.27;3.17;;;31.30;25.90;;;;;;5091110;28;20072;-63
2021/09/29 01:58:32;;;;;;;14.38;3.75;;;31.20;26.40;;;;;;5093229;28;20547;-62
2021/09/29 02:01:00;;;;;;;13.23;4.75;;;31.10;26.20;;;;;;5092185;28;20090;-62
2021/09/29 02:03:27;;;;;;;19.90;4.28;;;31.00;26.70;;;;;;5071347;28;20445;-63
2021/09/29 02:05:53;;;;;;;23.67;4.13;;;31.00;26.50;;;;;;5090415;28;20167;-62
2021/09/29 02:08:19;;;;;;;24.52;3.17;;;30.90;26.60;;;;;;5089915;28;20072;-62
2021/09/29 02:10:46;;;;;;;25.10;3.92;;;30.80;26.40;;;;;;5089374;28;20106;-62
2021/09/29 02:13:12;;;;;;;34.85;3.33;;;30.80;26.40;;;;;;5072002;28;20545;-62
2021/09/29 02:15:39;;;;;;;18.40;3.30;;;30.70;26.50;;;;;;5097472;28;20488;-63
2021/09/29 02:18:05;;;;;;;20.42;3.42;;;30.60;26.90;;;;;;5091646;28;20072;-64
2021/09/29 02:20:32;;;;;;;38.72;3.28;;;30.50;27.10;;;;;;5089885;28;20522;-61
2021/09/29 02:22:58;;;;;;;19.95;3.35;;;30.50;27.30;;;;;;5089895;28;20087;-62
2021/09/29 02:25:24;;;;;;;24.42;3.20;;;30.40;27.20;;;;;;5072193;28;20072;-63
2021/09/29 02:27:51;;;;;;;25.80;4.07;;;30.40;27.20;;;;;;5089299;28;20541;-62
2021/09/29 02:30:17;;;;;;;24.48;3.15;;;30.30;27.40;;;;;;5090392;28;20135;-61
2021/09/29 02:32:44;;;;;;;24.20;3.85;;;30.20;27.50;;;;;;5089199;28;20135;-63
2021/09/29 02:35:12;;;;;;;17.73;3.60;;;30.10;27.30;;;;;;5073119;28;20096;-61
2021/09/29 02:37:38;;;;;;;17.85;3.78;;;30.10;27.60;;;;;;5088445;28;20064;-61
2021/09/29 02:40:06;;;;;;;21.10;3.00;;;30.10;27.80;;;;;;5088263;28;20445;-62
2021/09/29 02:42:32;;;;;;;14.85;3.08;;;30.00;27.50;;;;;;5090290;28;20118;-62
2021/09/29 02:45:00;;;;;;;19.95;3.08;;;30.00;27.80;;;;;;5089401;28;20118;-62
2021/09/29 02:47:27;;;;;;;17.73;3.60;;;30.00;28.20;;;;;;5072019;28;20126;-62
2021/09/29 02:49:54;;;;;;;23.38;3.80;;;29.90;28.00;;;;;;5088934;28;20075;-61
2021/09/29 02:52:20;;;;;;;18.45;3.22;;;29.90;28.20;;;;;;5070959;28;20088;-62
2021/09/29 02:54:46;;;;;;;17.52;3.28;;;29.90;28.70;;;;;;5090031;28;20126;-62
2021/09/29 02:57:13;;;;;;;17.08;3.20;;;29.80;29.30;;;;;;5089022;28;20073;-63
2021/09/29 02:59:39;;;;;;;13.95;3.50;;;29.70;29.50;;;;;;5089122;28;20069;-62
2021/09/29 03:02:06;;;;;;;16.92;3.17;;;29.70;29.90;;;;;;5088289;28;20100;-62
2021/09/29 03:04:32;;;;;;;19.25;3.25;;;29.60;29.70;;;;;;5088687;28;20072;-62
2021/09/29 03:06:59;;;;;;;16.92;3.72;;;29.60;30.90;;;;;;5090096;28;20119;-62
2021/09/29 03:09:25;;;;;;;14.73;3.38;;;29.50;29.50;;;;;;5071314;28;20089;-62
2021/09/29 03:11:51;;;;;;;13.52;3.55;;;29.40;28.60;;;;;;5072094;28;20117;-61
2021/09/29 03:14:18;;;;;;;16.30;3.00;;;29.50;28.40;;;;;;5090408;28;20485;-61
2021/09/29 03:16:44;;;;;;;19.55;3.17;;;29.50;28.50;;;;;;5088706;28;20088;-61
2021/09/29 03:19:11;;;;;;;11.32;3.10;;;29.50;28.50;;;;;;5089759;28;20081;-63
2021/09/29 03:21:37;;;;;;;9.75;2.88;;;29.50;28.70;;;;;;5090079;28;20102;-62
2021/09/29 03:24:04;;;;;;;11.50;2.60;;;29.50;28.70;;;;;;5072789;28;20143;-62
2021/09/29 03:26:30;;;;;;;9.02;2.60;;;29.40;28.50;;;;;;5072444;28;20083;-62
2021/09/29 03:28:57;;;;;;;8.82;2.85;;;29.40;28.70;;;;;;5088696;28;20446;-62
2021/09/29 03:31:23;;;;;;;7.57;2.22;;;29.40;28.80;;;;;;5090403;28;20116;-62
2021/09/29 03:33:50;;;;;;;12.77;2.65;;;29.30;29.00;;;;;;5088145;28;20527;-62
2021/09/29 03:36:16;;;;;;;12.10;2.75;;;29.30;29.10;;;;;;5090532;28;20069;-62
2021/09/29 03:38:42;;;;;;;4.07;2.45;;;29.20;29.10;;;;;;5088350;28;20580;-61
2021/09/29 03:41:09;;;;;;;9.20;2.80;;;29.10;29.30;;;;;;5088834;28;20545;-61
2021/09/29 03:43:35;;;;;;;10.20;2.60;;;29.10;29.90;;;;;;5088846;28;20076;-62
2021/09/29 03:46:01;;;;;;;11.45;2.70;;;29.00;30.10;;;;;;5087740;28;20096;-61
2021/09/29 03:48:28;;;;;;;12.38;3.00;;;29.00;30.30;;;;;;5088357;28;20081;-61
2021/09/29 03:50:54;;;;;;;6.25;2.67;;;28.90;30.20;;;;;;5088903;28;20166;-62
2021/09/29 03:53:21;;;;;;;37.15;22.95;;;28.90;30.90;;;;;;5093249;28;21163;-62
2021/09/29 03:55:47;;;;;;;10.63;5.18;;;29.40;30.20;;;;;;5092499;28;20156;-62
2021/09/29 03:58:13;;;;;;;12.82;2.90;;;30.10;29.80;;;;;;5095492;28;20076;-62
2021/09/29 04:00:40;;;;;;;16.20;3.50;;;30.30;28.90;;;;;;5090596;28;20441;-63
2021/09/29 04:03:07;;;;;;;10.63;3.63;;;30.90;29.00;;;;;;5090938;28;20096;-63
2021/09/29 04:05:34;;;;;;;14.50;3.55;;;31.40;28.30;;;;;;5090258;28;20080;-62
2021/09/29 04:08:00;;;;;;;15.77;4.65;;;31.40;28.40;;;;;;5091085;28;20139;-63
2021/09/29 04:10:26;;;;;;;16.52;6.90;;;31.50;28.10;;;;;;5090700;28;20125;-62
2021/09/29 04:12:53;;;;;;;19.23;7.60;;;31.60;28.20;;;;;;5073982;28;20088;-62
2021/09/29 04:15:19;;;;;;;38.30;18.63;;;31.50;28.10;;;;;;5090858;28;20072;-62
2021/09/29 04:17:45;;;;;;;51.08;24.30;;;31.20;28.20;;;;;;5092077;28;20077;-64
2021/09/29 04:20:12;;;;;;;46.03;24.70;;;31.10;28.50;;;;;;5090722;28;20457;-62
2021/09/29 04:22:38;;;;;;;58.58;25.73;;;31.30;28.60;;;;;;5093089;28;20117;-63
2021/09/29 04:25:06;;;;;;;45.88;23.17;;;31.20;28.50;;;;;;5073907;28;20076;-62
2021/09/29 04:27:33;;;;;;;53.40;24.10;;;31.20;28.70;;;;;;5091063;28;20064;-65
2021/09/29 04:30:00;;;;;;;45.92;19.60;;;31.50;28.70;;;;;;5089710;28;20097;-64
2021/09/29 04:32:26;;;;;;;34.70;17.20;;;30.90;29.60;;;;;;5091259;28;20089;-63
2021/09/29 04:34:52;;;;;;;35.58;15.70;;;31.00;28.70;;;;;;5090414;28;20076;-63
2021/09/29 04:37:19;;;;;;;28.27;11.80;;;30.30;35.20;;;;;;5059316;28;20073;-62
2021/09/29 04:39:45;;;;;;;24.05;9.30;;;31.00;43.30;;;;;;5091480;28;20020;-62
2021/09/29 04:42:12;;;;;;;24.23;7.95;;;30.90;29.50;;;;;;5073647;28;20542;-63
2021/09/29 04:44:38;;;;;;;26.23;7.10;;;30.90;29.80;;;;;;5092633;28;20071;-64
2021/09/29 04:47:05;;;;;;;28.75;6.68;;;30.70;33.10;;;;;;5090867;28;20691;-64
2021/09/29 04:49:32;;;;;;;21.83;5.90;;;31.00;29.50;;;;;;5091396;28;20162;-63
2021/09/29 04:51:58;;;;;;;14.38;5.53;;;31.00;29.30;;;;;;5074682;28;20502;-59
2021/09/29 04:54:24;;;;;;;26.80;5.88;;;31.10;29.30;;;;;;5090039;28;20197;-66
2021/09/29 04:56:51;;;;;;;17.65;4.75;;;31.20;29.60;;;;;;5093549;28;20075;-64
2021/09/29 04:59:18;;;;;;;16.05;4.90;;;31.50;29.40;;;;;;5089618;28;20560;-63
2021/09/29 05:01:44;;;;;;;17.33;4.63;;;31.20;29.00;;;;;;5072494;28;20095;-64
2021/09/29 05:04:11;;;;;;;32.15;16.77;;;30.80;28.60;;;;;;5092143;28;20083;-63
2021/09/29 05:06:41;;;;;;;24.05;6.32;;;30.40;28.80;;;;;;5073128;28;20080;-63
2021/09/29 05:09:08;;;;;;;21.25;5.55;;;30.20;29.30;;;;;;5073535;28;20160;-64
2021/09/29 05:11:36;;;;;;;15.85;4.82;;;30.00;29.60;;;;;;5089690;28;20202;-66
2021/09/29 05:14:02;;;;;;;17.60;5.15;;;29.80;29.70;;;;;;5089258;28;20075;-63
2021/09/29 05:16:28;;;;;;;28.52;4.47;;;29.50;29.70;;;;;;5073517;28;20095;-66
2021/09/29 05:18:55;;;;;;;10.38;3.90;;;29.80;30.60;;;;;;5089202;28;20065;-62
2021/09/29 05:21:21;;;;;;;12.82;4.20;;;30.00;30.10;;;;;;5091285;28;20163;-63
2021/09/29 05:23:47;;;;;;;16.60;4.95;;;29.80;29.90;;;;;;5088772;28;20068;-64
2021/09/29 05:26:18;;;;;;;18.60;4.25;;;29.70;30.10;;;;;;5090296;28;20172;-63
2021/09/29 05:28:50;;;;;;;25.05;5.10;;;29.60;30.60;;;;;;5088859;28;20072;-65
2021/09/29 05:31:17;;;;;;;28.10;4.70;;;29.60;30.60;;;;;;5089381;28;20541;-63
2021/09/29 05:33:44;;;;;;;19.25;4.47;;;29.40;30.70;;;;;;5088106;28;20110;-64
2021/09/29 05:36:11;;;;;;;21.02;4.32;;;29.50;31.80;;;;;;5088660;28;20096;-64
2021/09/29 05:38:37;;;;;;;16.23;4.15;;;29.60;31.60;;;;;;5088787;28;20110;-64
2021/09/29 05:41:04;;;;;;;27.17;4.93;;;29.40;32.20;;;;;;5089216;28;20623;-63
2021/09/29 05:43:30;;;;;;;17.45;5.35;;;29.20;31.20;;;;;;5088970;28;20512;-63
2021/09/29 05:45:58;;;;;;;28.40;5.28;;;28.90;31.80;;;;;;5088989;28;20087;-63
2021/09/29 05:48:25;;;;;;;25.67;5.45;;;28.90;32.40;;;;;;5088114;28;20522;-64
2021/09/29 05:50:52;;;;;;;21.88;5.30;;;29.00;32.30;;;;;;5089132;28;20091;-63
2021/09/29 05:53:18;;;;;;;26.85;10.32;;;29.20;32.70;;;;;;5073317;28;20106;-64
2021/09/29 05:55:44;;;;;;;23.67;8.63;;;29.10;32.00;;;;;;5092985;28;20082;-63
2021/09/29 05:58:11;;;;;;;14.48;5.55;;;28.90;32.30;;;;;;5090145;28;20415;-64
2021/09/29 06:00:37;;;;;;;18.65;4.85;;;28.70;33.60;;;;;;5089756;28;20461;-63
2021/09/29 06:03:04;;;;;;;15.98;4.28;;;28.70;34.00;;;;;;5089885;28;20129;-64
2021/09/29 06:05:30;;;;;;;11.23;3.63;;;28.60;34.20;;;;;;5089471;28;20080;-64
2021/09/29 06:07:56;;;;;;;13.80;3.70;;;28.70;34.20;;;;;;5071322;28;20438;-64
2021/09/29 06:10:23;;;;;;;12.98;4.32;;;28.70;33.90;;;;;;5087520;28;20156;-64
2021/09/29 06:12:50;;;;;;;15.80;4.20;;;28.40;34.00;;;;;;5090888;28;20166;-65
2021/09/29 06:15:29;;;;;;;10.27;3.22;;;28.30;34.60;;;;;;5088392;28;20107;-63
2021/09/29 06:18:02;;;;;;;8.05;3.55;;;28.20;34.40;;;;;;5072082;28;20075;-64
2021/09/29 06:20:33;;;;;;;5.40;2.50;;;28.10;33.80;;;;;;5088281;28;20069;-63
2021/09/29 06:23:03;;;;;;;7.28;2.35;;;28.00;34.10;;;;;;5090036;28;20126;-64
2021/09/29 06:25:30;;;;;;;7.25;2.20;;;28.10;34.00;;;;;;5071131;28;20069;-63
2021/09/29 06:27:56;;;;;;;6.95;2.20;;;28.10;33.60;;;;;;5089709;28;20127;-64
2021/09/29 06:30:23;;;;;;;8.27;2.55;;;27.70;41.40;;;;;;5088816;28;20136;-63
2021/09/29 06:32:51;;;;;;;9.45;2.50;;;27.50;33.30;;;;;;5088195;28;20454;-63
2021/09/29 06:35:21;;;;;;;5.90;1.98;;;27.30;33.70;;;;;;5071452;28;20486;-64
2021/09/29 06:37:47;;;;;;;8.20;2.40;;;27.20;34.20;;;;;;5088935;28;20130;-63
2021/09/29 06:40:16;;;;;;;11.50;2.35;;;27.40;34.40;;;;;;5086870;28;20520;-65
2021/09/29 06:42:44;;;;;;;7.30;2.55;;;27.60;34.20;;;;;;5088274;28;20445;-64
2021/09/29 06:45:12;;;;;;;12.57;2.88;;;27.60;34.70;;;;;;5071305;28;20526;-63
2021/09/29 06:47:39;;;;;;;14.05;2.50;;;27.60;34.60;;;;;;5071058;28;20081;-64
2021/09/29 06:50:08;;;;;;;8.93;2.53;;;27.60;34.60;;;;;;5088421;28;20072;-62
2021/09/29 06:52:34;;;;;;;6.90;2.50;;;27.60;34.50;;;;;;5087750;28;20180;-63
2021/09/29 06:55:01;;;;;;;7.60;2.50;;;27.50;34.60;;;;;;5072017;28;20080;-64
2021/09/29 06:57:27;;;;;;;11.65;2.47;;;27.30;34.40;;;;;;5090387;28;20094;-63
2021/09/29 06:59:54;;;;;;;21.23;2.90;;;27.10;34.60;;;;;;5087919;28;20114;-65
2021/09/29 07:02:20;;;;;;;11.98;2.80;;;27.10;35.20;;;;;;5087892;28;20072;-63
2021/09/29 07:04:46;;;;;;;13.95;2.60;;;27.10;35.40;;;;;;5054844;28;20077;-63
2021/09/29 07:07:13;;;;;;;9.10;2.63;;;27.00;35.30;;;;;;5089018;28;20080;-64
2021/09/29 07:09:40;;;;;;;7.95;2.28;;;26.70;35.90;;;;;;5087822;28;20076;-63
2021/09/29 07:12:07;;;;;;;8.55;2.78;;;26.50;36.30;;;;;;5089917;28;20093;-63
2021/09/29 07:14:33;;;;;;;8.38;2.30;;;26.40;37.00;;;;;;5089577;28;20433;-63
2021/09/29 07:17:00;;;;;;;6.60;2.40;;;26.50;37.50;;;;;;5088354;28;20546;-61
2021/09/29 07:19:28;;;;;;;9.40;2.92;;;26.50;37.90;;;;;;5088239;28;20088;-61
2021/09/29 07:21:55;;;;;;;8.65;2.30;;;26.50;38.40;;;;;;5090035;28;20133;-62
2021/09/29 07:24:21;;;;;;;6.10;2.75;;;26.30;38.70;;;;;;5087877;28;20096;-61
2021/09/29 07:26:48;;;;;;;6.43;2.70;;;26.20;39.20;;;;;;5074936;28;20076;-62
2021/09/29 07:29:14;;;;;;;8.70;2.42;;;26.20;39.50;;;;;;5093337;28;20065;-63
2021/09/29 07:31:41;;;;;;;12.35;3.00;;;26.20;39.80;;;;;;5091359;28;20204;-62
2021/09/29 07:34:08;;;;;;;6.28;2.40;;;26.10;39.30;;;;;;5092005;28;20064;-61
2021/09/29 07:36:38;;;;;;;11.50;2.97;;;25.90;39.90;;;;;;5093298;28;20076;-63
2021/09/29 07:39:05;;;;;;;4.68;2.65;;;25.90;40.10;;;;;;5091302;28;20081;-62
2021/09/29 07:41:32;;;;;;;6.30;2.20;;;25.90;40.20;;;;;;5091224;28;20072;-63
2021/09/29 07:43:59;;;;;;;14.32;2.83;;;26.00;40.70;;;;;;5089984;28;20541;-62
2021/09/29 07:46:25;;;;;;;9.30;3.17;;;25.80;40.20;;;;;;5090798;28;20220;-62
2021/09/29 07:48:51;;;;;;;9.95;2.83;;;25.80;40.70;;;;;;5093006;28;20102;-65
2021/09/29 07:51:21;;;;;;;11.75;3.20;;;26.00;40.80;;;;;;5090031;28;20133;-63
2021/09/29 07:53:47;;;;;;;14.05;2.92;;;25.90;40.60;;;;;;5091677;28;20097;-61
2021/09/29 07:56:18;;;;;;;10.05;3.08;;;25.70;40.80;;;;;;5092937;28;20068;-62
2021/09/29 07:58:45;;;;;;;7.07;2.60;;;25.30;75.90;;;;;;5091498;28;20100;-60
2021/09/29 08:01:12;;;;;;;14.43;3.03;;;25.50;49.00;;;;;;5094904;28;20027;-62
2021/09/29 08:03:43;;;;;;;7.15;2.92;;;25.70;41.20;;;;;;5099522;28;20079;-63
2021/09/29 08:06:10;;;;;;;6.57;3.42;;;25.90;47.60;;;;;;5096665;28;20462;-60
2021/09/29 08:08:38;;;;;;;7.28;2.35;;;25.60;41.00;;;;;;5076545;28;20548;-62
2021/09/29 08:11:05;;;;;;;11.02;3.35;;;25.70;41.60;;;;;;5090459;28;20225;-63
2021/09/29 08:13:31;;;;;;;10.85;3.15;;;25.70;41.40;;;;;;5091563;28;20084;-63
2021/09/29 08:15:59;;;;;;;15.13;3.60;;;25.50;41.70;;;;;;5092241;28;20218;-61
2021/09/29 08:18:26;;;;;;;11.63;2.95;;;25.40;42.60;;;;;;5099065;28;20076;-63
2021/09/29 08:20:55;;;;;;;8.90;2.88;;;25.40;42.60;;;;;;5096455;28;20403;-63
2021/09/29 08:23:26;;;;;;;11.10;3.00;;;25.40;42.60;;;;;;5097597;28;20072;-63
2021/09/29 08:34:36;;;;;;;14.52;3.05;;;25.10;43.90;;;;;;5091716;28;20470;-61
2021/09/29 08:39:30;;;;;;;11.52;3.40;;;24.80;44.70;;;;;;5098297;28;20107;-63
2021/09/29 08:44:32;;;;;;;13.75;3.55;;;24.40;45.20;;;;;;5092253;28;20080;-61
2021/09/29 08:47:07;;;;;;;12.13;3.53;;;24.30;45.80;;;;;;5100777;28;20549;-62
2021/09/29 09:17:31;;;;;;;9.23;3.53;;;23.80;79.20;;;;;;5089323;28;20052;-63
2021/09/29 09:20:17;;;;;;;15.25;4.20;;;23.40;51.50;;;;;;5088917;28;20039;-62
2021/09/29 09:22:48;;;;;;;8.65;4.00;;;23.80;50.00;;;;;;5074382;28;20576;-62
2021/09/29 09:25:15;;;;;;;10.38;3.92;;;23.70;48.50;;;;;;5087737;28;20521;-64
2021/09/29 09:27:45;;;;;;;10.32;3.50;;;23.70;48.50;;;;;;5072722;28;20050;-62
2021/09/29 09:30:29;;;;;;;20.33;4.32;;;23.40;51.80;;;;;;5094919;28;20154;-62
2021/09/29 09:32:56;;;;;;;16.65;4.18;;;;;;;;;;5090379;28;20174;-64
2021/09/29 09:35:24;;;;;;;15.32;4.45;;;;;;;;;;5088907;28;20054;-63
2021/09/29 09:37:58;;;;;;;13.70;4.53;;;23.60;52.10;;;;;;5095724;28;20026;-63
2021/09/29 09:40:29;;;;;;;12.35;4.25;;;23.50;71.40;;;;;;5090198;28;20016;-62
2021/09/29 09:42:57;;;;;;;8.77;4.18;;;23.30;48.60;;;;;;5089129;28;20389;-62
2021/09/29 09:45:43;;;;;;;6.07;4.18;;;23.20;72.40;;;;;;5090036;28;20062;-64
2021/09/29 09:48:21;;;;;;;9.02;3.70;;;23.40;49.00;;;;;;5072681;28;20076;-63
2021/09/29 09:50:48;;;;;;;13.32;4.32;;;23.40;49.50;;;;;;5067867;28;20076;-63
2021/09/29 09:53:15;;;;;;;14.70;4.68;;;23.30;49.00;;;;;;5089333;28;20122;-64
2021/09/29 09:55:42;;;;;;;13.80;3.63;;;23.30;49.10;;;;;;5088946;28;20500;-62
2021/09/29 09:58:08;;;;;;;17.80;4.00;;;23.30;49.40;;;;;;5088643;28;20072;-62
2021/09/29 10:00:36;;;;;;;15.98;3.97;;;23.60;49.20;;;;;;5089442;28;20065;-63
2021/09/29 10:03:04;;;;;;;13.98;4.30;;;22.90;48.90;;;;;;5096338;28;20501;-63
2021/09/29 10:05:31;;;;;;;11.68;4.45;;;23.10;49.70;;;;;;5090739;28;20103;-63
2021/09/29 10:08:00;;;;;;;13.13;4.78;;;23.10;49.70;;;;;;5088700;28;20552;-63
2021/09/29 10:27:07;;;;;;;14.35;4.20;;;23.00;48.60;;;;;;5088697;28;20545;-63
2021/09/29 10:29:40;;;;;;;12.55;3.42;;;23.10;48.70;;;;;;5089894;28;20096;-63
2021/09/29 10:32:17;;;;;;;16.08;4.07;;;23.10;48.50;;;;;;5087718;28;20110;-63
2021/09/29 10:35:05;;;;;;;12.13;4.20;;;23.00;49.40;;;;;;5087053;28;20099;-63
2021/09/29 10:37:55;;;;;;;20.15;4.50;;;23.00;49.20;;;;;;5095449;28;20607;-61
2021/09/29 11:05:59;;;;;;;21.03;4.80;;;22.90;51.40;;;;;;5092089;28;20092;-62
2021/09/29 11:08:44;;;;;;;23.25;3.97;;;22.80;51.80;;;;;;5093376;28;20079;-62
2021/09/29 11:30:44;;;;;;;13.93;3.72;;;22.20;53.40;;;;;;5090903;28;20112;-62
2021/09/29 11:33:31;;;;;;;9.48;3.40;;;22.10;53.40;;;;;;5092793;28;20174;-63
2021/09/29 11:36:07;;;;;;;9.00;3.77;;;21.70;57.20;;;;;;5091465;28;20043;-64
2021/09/29 11:49:55;;;;;;;10.15;3.40;;;21.90;51.90;;;;;;5092314;28;20130;-63
2021/09/29 12:14:50;;;;;;;10.77;2.85;;;21.60;59.60;;;;;;5074163;28;20081;-63
2021/09/29 12:17:38;;;;;;;6.95;2.88;;;21.90;48.90;;;;;;5090754;28;20125;-63
2021/09/29 12:20:14;;;;;;;3.88;2.20;;;21.90;47.60;;;;;;5091329;28;20027;-61
2021/09/29 12:22:53;;;;;;;5.20;2.38;;;22.00;47.20;;;;;;5092733;28;20031;-65
2021/09/29 12:25:36;;;;;;;5.63;2.75;;;22.00;47.60;;;;;;5060105;28;20084;-63
2021/09/29 12:30:54;;;;;;;7.60;2.75;;;22.10;45.10;;;;;;5091605;28;20517;-64
2021/09/29 12:35:49;;;;;;;6.60;2.30;;;;;;;;;;5092701;28;20164;-63
2021/09/29 12:38:16;;;;;;;6.47;2.35;;;22.30;46.00;;;;;;5090117;28;20075;-64
2021/09/29 12:40:44;;;;;;;4.22;2.33;;;22.40;41.90;;;;;;5089599;28;20460;-64
2021/09/29 12:43:14;;;;;;;4.30;2.35;;;22.40;41.60;;;;;;5089671;28;20085;-63
2021/09/29 12:45:47;;;;;;;3.78;2.28;;;22.40;41.50;;;;;;5090449;28;20123;-64
2021/09/29 12:48:16;;;;;;;7.53;2.70;;;22.50;41.40;;;;;;5090136;28;20072;-64
2021/09/29 12:50:52;;;;;;;4.38;2.40;;;22.50;41.20;;;;;;5090219;28;20080;-64
2021/09/29 12:56:03;;;;;;;3.58;2.20;;;22.50;41.00;;;;;;5091375;28;20826;-63
2021/09/29 12:58:30;;;;;;;5.50;2.40;;;22.50;40.80;;;;;;5088388;28;20083;-64
2021/09/29 13:00:59;;;;;;;5.10;2.42;;;22.50;41.30;;;;;;5086553;28;20075;-63
2021/09/29 13:03:25;;;;;;;5.15;2.20;;;22.50;41.50;;;;;;5087552;28;20076;-63
2021/09/29 13:05:52;;;;;;;9.43;2.20;;;22.40;41.70;;;;;;5087139;28;20091;-64
2021/09/29 13:08:19;;;;;;;4.20;2.60;;;22.40;41.90;;;;;;5086252;28;20079;-66
2021/09/29 13:10:46;;;;;;;5.70;2.65;;;22.40;42.40;;;;;;5086058;28;20557;-63
2021/09/29 13:13:13;;;;;;;6.50;2.67;;;22.40;42.70;;;;;;5085883;28;20102;-63
2021/09/29 13:15:42;;;;;;;7.07;2.28;;;22.30;42.80;;;;;;5088698;28;20076;-64
2021/09/29 13:18:14;;;;;;;6.97;2.97;;;22.30;43.30;;;;;;5087324;28;20523;-64
2021/09/29 13:20:44;;;;;;;7.05;2.92;;;22.30;43.60;;;;;;5089916;28;20072;-63
2021/09/29 13:23:15;;;;;;;7.40;2.30;;;22.30;43.90;;;;;;5088518;28;20126;-64
2021/09/29 13:36:39;;;;;;;7.07;2.53;;;22.10;44.50;;;;;;5086901;28;20138;-62
2021/09/29 13:39:17;;;;;;;4.35;2.60;;;22.10;44.50;;;;;;5089786;28;20513;-62
2021/09/29 13:41:46;;;;;;;10.55;2.80;;;22.10;44.90;;;;;;5087509;28;21014;-65
2021/09/29 13:44:13;;;;;;;9.50;2.80;;;22.10;44.80;;;;;;5087925;28;20076;-64
2021/09/29 13:46:41;;;;;;;9.18;3.05;;;22.00;44.70;;;;;;5072125;28;20093;-64
2021/09/29 13:49:08;;;;;;;5.95;2.35;;;22.00;45.00;;;;;;5088780;28;20090;-64
2021/09/29 13:51:40;;;;;;;10.52;2.88;;;22.00;44.70;;;;;;5089642;28;20095;-64
2021/09/29 13:54:14;;;;;;;11.75;2.80;;;22.00;45.00;;;;;;5089545;28;20605;-65
2021/09/29 13:59:44;;;;;;;7.50;3.55;;;22.00;45.20;;;;;;5088497;28;20480;-64
2021/09/29 14:29:31;;;;;;;13.85;2.90;;;22.50;45.00;;;;;;5091744;28;20141;-64
2021/09/29 14:34:25;;;;;;;17.77;3.42;;;22.50;45.50;;;;;;5088881;28;20164;-65
2021/09/29 14:36:52;;;;;;;12.38;3.17;;;22.60;45.60;;;;;;5087054;28;20525;-64
2021/09/29 14:39:18;;;;;;;14.23;3.55;;;22.70;44.80;;;;;;5088324;28;20065;-63
2021/09/29 14:41:45;;;;;;;18.50;4.00;;;22.80;46.80;;;;;;5089428;28;20160;-66
2021/09/29 14:44:11;;;;;;;22.38;3.67;;;22.90;46.50;;;;;;5088324;28;20183;-64
2021/09/29 14:46:38;;;;;;;14.43;2.85;;;22.90;44.90;;;;;;5088172;28;20131;-64
2021/09/29 14:49:05;;;;;;;13.65;3.50;;;23.00;43.90;;;;;;5088030;28;20526;-63
2021/09/29 14:51:32;;;;;;;6.60;2.90;;;23.10;43.70;;;;;;5086624;28;20084;-64
2021/09/29 14:53:59;;;;;;;12.18;2.90;;;23.10;42.20;;;;;;5088276;28;20084;-63
2021/09/29 14:56:27;;;;;;;7.32;3.30;;;23.10;42.20;;;;;;5089019;28;20163;-64
2021/09/29 14:58:54;;;;;;;9.75;3.22;;;23.30;41.80;;;;;;5071037;28;20076;-63
2021/09/29 15:01:23;;;;;;;13.10;3.00;;;23.30;41.00;;;;;;5088799;28;20538;-65
2021/09/29 15:03:51;;;;;;;12.85;3.28;;;23.40;41.20;;;;;;5070055;28;20801;-64
2021/09/29 15:06:18;;;;;;;14.43;3.70;;;23.50;41.30;;;;;;5089029;28;20434;-64
2021/09/29 15:08:44;;;;;;;11.18;3.35;;;23.60;40.80;;;;;;5087884;28;20080;-64
2021/09/29 15:11:12;;;;;;;7.32;2.92;;;23.70;41.10;;;;;;5070852;28;20097;-64
2021/09/29 15:13:48;;;;;;;10.90;3.53;;;23.90;40.30;;;;;;5071881;28;20230;-66
2021/09/29 15:16:25;;;;;;;8.25;2.58;;;23.90;39.90;;;;;;5087966;28;20072;-67
2021/09/29 15:26:38;;;;;;;9.88;2.90;;;23.90;39.80;;;;;;5089926;28;20072;-64
2021/09/29 15:29:23;;;;;;;15.73;3.47;;;23.80;40.60;;;;;;5087225;28;20557;-64
2021/09/29 15:31:57;;;;;;;12.80;3.08;;;23.90;41.00;;;;;;5073841;28;20664;-66
2021/09/29 15:48:37;;;;;;;14.02;3.10;;;24.10;40.70;;;;;;5050983;28;20131;-64
2021/09/29 15:56:17;;;;;;;10.15;2.60;;;24.50;38.90;;;;;;5050515;28;20590;-63
2021/09/29 15:58:56;;;;;;;10.13;2.88;;;24.70;38.30;;;;;;5050940;28;20641;-64
2021/09/29 16:01:33;;;;;;;12.35;2.60;;;25.20;37.30;;;;;;5051092;28;20147;-65
2021/09/29 16:09:38;;;;;;;8.25;2.65;;;26.80;34.50;;;;;;5083840;28;20112;-64
2021/09/29 16:12:21;;;;;;;8.90;2.97;;;26.70;33.30;;;;;;5091611;28;20076;-65
2021/09/29 16:17:44;;;;;;;9.73;2.90;;;27.10;33.60;;;;;;5060341;28;20408;-64
2021/09/29 16:22:58;;;;;;;12.57;2.75;;;28.10;31.30;;;;;;5092129;28;20069;-64
2021/09/29 16:33:47;;;;;;;6.05;2.40;;;28.90;30.00;;;;;;5091946;28;20080;-66
2021/09/29 16:36:16;;;;;;;7.03;2.30;;;29.70;29.10;;;;;;5091103;28;20180;-63
2021/09/29 16:38:47;;;;;;;4.20;2.20;;;30.70;28.40;;;;;;5074434;28;20785;-63
2021/09/29 16:41:15;;;;;;;10.23;2.20;;;31.30;28.00;;;;;;5090048;28;20068;-65
2021/09/29 16:43:42;;;;;;;8.85;2.47;;;31.50;26.70;;;;;;5073327;28;20094;-63
2021/09/29 16:46:08;;;;;;;6.22;2.22;;;31.30;26.30;;;;;;5073307;28;20088;-63